createdAt,value
2023-04-15T00:01:45.513Z,1.35
2023-04-15T00:04:13.156Z,0.88
2023-04-15T00:06:41.107Z,1.00
2023-04-15T00:09:08.865Z,0.82
2023-04-15T00:11:36.369Z,0.90
2023-04-15T00:16:30.983Z,1.58
2023-04-15T00:18:58.589Z,0.80
2023-04-15T00:21:27.743Z,1.20
2023-04-15T00:23:55.263Z,1.02
2023-04-15T00:26:22.823Z,1.05
2023-04-15T00:28:50.508Z,0.80
2023-04-15T00:31:18.262Z,1.40
2023-04-15T00:33:47.087Z,1.55
2023-04-15T00:36:14.804Z,1.00
2023-04-15T00:38:42.322Z,0.85
2023-04-15T00:41:11.170Z,1.20
2023-04-15T00:43:38.635Z,1.08
2023-04-15T00:46:07.679Z,0.90
2023-04-15T00:48:36.030Z,1.05
2023-04-15T00:51:03.576Z,1.30
2023-04-15T00:53:31.061Z,0.80
2023-04-15T00:56:01.669Z,1.27
2023-04-15T00:58:29.298Z,1.00
2023-04-15T01:00:57.415Z,1.15
2023-04-15T01:03:25.576Z,1.02
2023-04-15T01:05:58.383Z,0.57
2023-04-15T01:08:32.361Z,0.95
2023-04-15T01:11:03.752Z,0.75
2023-04-15T01:13:33.945Z,1.00
2023-04-15T01:16:03.208Z,0.98
2023-04-15T01:18:31.507Z,1.00
2023-04-15T01:21:03.797Z,1.00
2023-04-15T01:23:32.889Z,1.42
2023-04-15T01:26:00.358Z,0.70
2023-04-15T01:28:28.554Z,0.88
2023-04-15T01:31:13.861Z,0.80
2023-04-15T01:33:43.365Z,0.70
2023-04-15T01:36:11.066Z,0.85
2023-04-15T01:38:39.243Z,0.70
2023-04-15T01:41:08.279Z,0.65
2023-04-15T01:43:37.478Z,0.80
2023-04-15T01:46:05.391Z,1.38
2023-04-15T01:48:33.515Z,1.52
2023-04-15T01:51:00.932Z,0.90
2023-04-15T01:53:28.621Z,0.90
2023-04-15T01:55:56.362Z,0.90
2023-04-15T01:58:23.996Z,0.73
2023-04-15T02:00:51.710Z,1.00
2023-04-15T02:03:19.490Z,1.35
2023-04-15T02:05:47.051Z,0.70
2023-04-15T02:08:14.651Z,1.05
2023-04-15T02:10:42.191Z,0.90
2023-04-15T02:13:11.012Z,0.77
2023-04-15T02:15:38.414Z,1.00
2023-04-15T02:20:33.244Z,1.17
2023-04-15T02:23:01.204Z,1.08
2023-04-15T02:25:28.602Z,1.15
2023-04-15T02:30:26.096Z,0.63
2023-04-15T02:32:53.715Z,1.08
2023-04-15T02:37:48.501Z,1.02
2023-04-15T02:42:44.415Z,1.00
2023-04-15T02:45:14.538Z,0.90
2023-04-15T02:47:43.452Z,1.30
2023-04-15T02:50:13.323Z,1.02
2023-04-15T02:52:43.478Z,0.88
2023-04-15T02:55:11.673Z,1.08
2023-04-15T02:57:40.875Z,1.02
2023-04-15T03:00:11.949Z,1.00
2023-04-15T03:02:43.234Z,1.13
2023-04-15T03:05:15.063Z,1.20
2023-04-15T03:07:52.214Z,1.00
2023-04-15T03:10:20.898Z,1.48
2023-04-15T03:12:48.586Z,0.98
2023-04-15T03:15:21.598Z,1.13
2023-04-15T03:17:52.301Z,1.30
2023-04-15T03:20:20.432Z,0.80
2023-04-15T03:22:49.060Z,1.27
2023-04-15T03:25:17.161Z,1.63
2023-04-15T03:27:44.620Z,2.08
2023-04-15T03:30:13.537Z,1.02
2023-04-15T03:32:41.871Z,2.30
2023-04-15T03:35:09.898Z,1.02
2023-04-15T03:37:37.341Z,1.27
2023-04-15T03:40:05.267Z,1.40
2023-04-15T03:42:32.689Z,1.27
2023-04-15T03:47:27.864Z,1.90
2023-04-15T03:49:55.808Z,1.35
2023-04-15T03:52:23.236Z,1.60
2023-04-15T03:57:17.917Z,1.60
2023-04-15T03:59:45.449Z,1.42
2023-04-15T04:04:40.359Z,1.45
2023-04-15T04:07:07.791Z,1.50
2023-04-15T04:09:35.303Z,1.25
2023-04-15T04:12:02.712Z,1.52
2023-04-15T04:19:25.163Z,1.45
2023-04-15T04:21:52.825Z,1.25
2023-04-15T04:24:20.616Z,1.88
2023-04-15T04:26:48.603Z,1.63
2023-04-15T04:29:16.416Z,1.38
2023-04-15T04:31:44.148Z,1.80
2023-04-15T04:34:11.769Z,1.90
2023-04-15T04:39:06.405Z,1.42
2023-04-15T04:44:01.238Z,1.45
2023-04-15T04:48:56.152Z,1.35
2023-04-15T04:51:23.588Z,1.70
2023-04-15T04:56:18.356Z,1.88
2023-04-15T04:58:46.020Z,1.83
2023-04-15T05:01:13.745Z,1.60
2023-04-15T05:03:41.933Z,1.25
2023-04-15T05:06:09.616Z,1.85
2023-04-15T05:08:39.124Z,1.75
2023-04-15T05:11:07.737Z,1.67
2023-04-15T05:18:34.504Z,1.73
2023-04-15T05:21:02.840Z,1.70
2023-04-15T05:23:30.343Z,1.80
2023-04-15T05:25:57.869Z,1.58
2023-04-15T05:30:52.639Z,1.55
2023-04-15T05:33:20.175Z,1.45
2023-04-15T05:35:47.609Z,1.40
2023-04-15T05:40:42.598Z,1.58
2023-04-15T05:43:10.220Z,2.33
2023-04-15T05:45:37.800Z,1.48
2023-04-15T05:48:05.416Z,1.30
2023-04-15T05:50:33.080Z,2.70
2023-04-15T05:53:00.836Z,1.65
2023-04-15T05:55:28.281Z,1.60
2023-04-15T06:00:23.154Z,2.22
2023-04-15T06:05:18.432Z,1.73
2023-04-15T06:07:48.337Z,1.92
2023-04-15T06:10:16.184Z,2.00
2023-04-15T06:12:43.653Z,2.00
2023-04-15T06:15:11.439Z,1.70
2023-04-15T06:17:38.881Z,1.45
2023-04-15T06:20:08.632Z,1.67
2023-04-15T06:22:38.140Z,1.63
2023-04-15T06:25:08.243Z,1.30
2023-04-15T06:27:35.717Z,1.90
2023-04-15T06:30:04.435Z,1.75
2023-04-15T06:32:32.722Z,1.67
2023-04-15T06:35:00.385Z,1.60
2023-04-15T06:37:27.918Z,1.55
2023-04-15T06:39:55.404Z,1.58
2023-04-15T06:42:23.228Z,1.67
2023-04-15T06:44:51.499Z,1.40
2023-04-15T06:47:19.862Z,1.90
2023-04-15T06:49:47.375Z,1.73
2023-04-15T06:52:16.649Z,2.25
2023-04-15T06:54:44.150Z,2.20
2023-04-15T06:57:11.625Z,1.85
2023-04-15T06:59:39.203Z,2.20
2023-04-15T07:02:09.141Z,2.22
2023-04-15T07:04:36.991Z,2.15
2023-04-15T07:07:04.717Z,1.95
2023-04-15T07:09:32.611Z,1.67
2023-04-15T07:12:00.149Z,2.10
2023-04-15T07:14:28.004Z,2.05
2023-04-15T07:16:55.971Z,1.77
2023-04-15T07:19:23.639Z,2.10
2023-04-15T07:21:51.706Z,1.75
2023-04-15T07:24:20.707Z,1.90
2023-04-15T07:26:48.256Z,1.70
2023-04-15T07:29:15.967Z,1.65
2023-04-15T07:31:46.558Z,1.88
2023-04-15T07:34:16.507Z,1.55
2023-04-15T07:36:44.765Z,2.25
2023-04-15T07:39:12.323Z,2.10
2023-04-15T07:41:39.816Z,2.22
2023-04-15T07:44:07.276Z,2.10
2023-04-15T07:46:34.819Z,1.88
2023-04-15T07:49:02.500Z,2.00
2023-04-15T07:51:30.826Z,2.72
2023-04-15T07:53:58.850Z,1.98
2023-04-15T07:56:26.691Z,2.13
2023-04-15T07:58:54.144Z,2.10
2023-04-15T08:01:21.756Z,2.53
2023-04-15T08:03:53.080Z,2.08
2023-04-15T08:06:20.963Z,1.77
2023-04-15T08:08:48.472Z,2.63
2023-04-15T08:11:16.626Z,2.50
2023-04-15T08:13:44.171Z,1.88
2023-04-15T08:16:18.979Z,1.90
2023-04-15T08:18:48.763Z,1.80
2023-04-15T08:21:24.386Z,1.77
2023-04-15T08:23:54.695Z,1.73
2023-04-15T08:26:22.971Z,2.03
2023-04-15T08:28:50.511Z,2.53
2023-04-15T08:31:21.989Z,2.08
2023-04-15T08:33:52.152Z,1.77
2023-04-15T08:36:20.112Z,1.45
2023-04-15T08:38:47.702Z,2.00
2023-04-15T08:41:23.731Z,2.20
2023-04-15T08:44:00.250Z,2.15
2023-04-15T08:46:28.214Z,1.70
2023-04-15T08:48:59.326Z,1.40
2023-04-15T08:51:27.815Z,2.28
2023-04-15T08:53:55.375Z,2.03
2023-04-15T08:56:28.805Z,1.75
2023-04-15T08:58:57.075Z,1.70
2023-04-15T09:01:25.674Z,1.60
2023-04-15T09:03:54.988Z,1.65
2023-04-15T09:06:23.490Z,1.10
2023-04-15T09:08:52.103Z,1.00
2023-04-15T09:11:20.288Z,1.13
2023-04-15T09:13:48.396Z,1.33
2023-04-15T09:16:15.788Z,2.08
2023-04-15T09:18:43.387Z,1.08
2023-04-15T09:21:14.184Z,0.95
2023-04-15T09:23:56.947Z,1.02
2023-04-15T09:26:38.048Z,1.10
2023-04-15T09:29:07.708Z,1.02
2023-04-15T09:31:39.320Z,1.33
2023-04-15T09:34:07.507Z,0.88
2023-04-15T09:37:00.994Z,0.95
2023-04-15T09:39:28.864Z,1.17
2023-04-15T09:42:07.397Z,1.23
2023-04-15T09:44:34.894Z,1.40
2023-04-15T09:47:02.417Z,1.10
2023-04-15T09:49:29.994Z,0.93
2023-04-15T09:52:05.102Z,1.02
2023-04-15T09:54:38.143Z,0.98
2023-04-15T09:57:10.231Z,1.00
2023-04-15T09:59:38.108Z,0.80
2023-04-15T10:02:09.510Z,1.02
2023-04-15T10:04:41.734Z,0.75
2023-04-15T10:07:10.142Z,1.10
2023-04-15T10:09:38.745Z,1.25
2023-04-15T10:12:06.343Z,1.00
2023-04-15T10:14:38.848Z,0.90
2023-04-15T10:17:11.647Z,0.98
2023-04-15T10:19:39.289Z,0.90
2023-04-15T10:22:07.979Z,1.00
2023-04-15T10:24:35.732Z,1.20
2023-04-15T10:27:07.542Z,1.02
2023-04-15T10:29:35.205Z,0.98
2023-04-15T10:32:03.822Z,1.27
2023-04-15T10:34:32.334Z,0.90
2023-04-15T10:37:03.890Z,1.17
2023-04-15T10:39:34.597Z,0.80
2023-04-15T10:42:16.940Z,0.93
2023-04-15T10:44:49.978Z,0.98
2023-04-15T10:47:19.674Z,0.98
2023-04-15T10:49:52.538Z,1.23
2023-04-15T10:52:26.296Z,1.00
2023-04-15T10:55:19.001Z,1.38
2023-04-15T10:57:46.712Z,0.85
2023-04-15T11:00:16.585Z,1.23
2023-04-15T11:02:48.454Z,0.80
2023-04-15T11:05:17.985Z,0.70
2023-04-15T11:07:51.151Z,1.02
2023-04-15T11:10:18.728Z,0.73
2023-04-15T11:12:46.693Z,0.68
2023-04-15T11:15:33.279Z,0.70
2023-04-15T11:18:01.527Z,0.90
2023-04-15T11:20:29.875Z,0.80
2023-04-15T11:23:14.551Z,0.70
2023-04-15T11:25:43.818Z,0.90
2023-04-15T11:28:12.591Z,0.70
2023-04-15T11:30:42.304Z,0.85
2023-04-15T11:33:12.350Z,0.82
2023-04-15T11:35:42.077Z,0.90
2023-04-15T11:38:16.845Z,0.93
2023-04-15T11:40:46.980Z,0.85
2023-04-15T11:43:23.308Z,1.05
2023-04-15T11:45:59.298Z,0.90
2023-04-15T11:48:32.245Z,0.77
2023-04-15T11:51:05.107Z,1.02
2023-04-15T11:53:52.281Z,0.75
2023-04-15T11:56:24.632Z,1.00
2023-04-15T11:58:59.789Z,0.85
2023-04-15T12:01:39.958Z,1.05
2023-04-15T12:04:15.329Z,0.85
2023-04-15T12:06:43.522Z,1.00
2023-04-15T12:09:13.252Z,0.90
2023-04-15T12:11:53.071Z,0.70
2023-04-15T12:14:32.243Z,1.10
2023-04-15T12:17:05.020Z,0.60
2023-04-15T12:19:37.725Z,1.30
2023-04-15T12:22:08.848Z,0.93
2023-04-15T12:24:38.142Z,1.08
2023-04-15T12:27:07.853Z,0.70
2023-04-15T12:29:37.051Z,0.70
2023-04-15T12:32:08.144Z,0.82
2023-04-15T12:34:43.474Z,1.15
2023-04-15T12:37:13.362Z,0.95
2023-04-15T12:39:43.700Z,0.80
2023-04-15T12:42:11.977Z,1.13
2023-04-15T12:44:40.202Z,0.60
2023-04-15T12:47:10.064Z,0.75
2023-04-15T12:49:37.853Z,1.00
2023-04-15T12:52:06.020Z,0.75
2023-04-15T12:54:34.684Z,0.70
2023-04-15T12:57:05.957Z,0.90
2023-04-15T12:59:34.330Z,0.60
2023-04-15T13:02:03.113Z,0.75
2023-04-15T13:04:31.686Z,0.85
2023-04-15T13:06:59.420Z,0.77
2023-04-15T13:09:27.177Z,1.02
2023-04-15T13:11:54.800Z,0.82
2023-04-15T13:14:22.396Z,0.80
2023-04-15T13:16:49.855Z,0.80
2023-04-15T13:19:17.571Z,0.90
2023-04-15T13:21:45.061Z,1.00
2023-04-15T13:24:12.532Z,0.98
2023-04-15T13:26:39.977Z,1.20
2023-04-15T13:29:07.532Z,1.23
2023-04-15T13:31:35.055Z,0.85
2023-04-15T13:36:30.715Z,1.10
2023-04-15T13:38:58.547Z,0.77
2023-04-15T13:41:26.040Z,1.08
2023-04-15T13:43:53.480Z,0.77
2023-04-15T13:46:21.101Z,0.77
2023-04-15T13:48:48.948Z,0.85
2023-04-15T13:51:16.388Z,1.17
2023-04-15T13:53:43.867Z,0.68
2023-04-15T13:56:11.369Z,0.90
2023-04-15T13:58:41.605Z,0.73
2023-04-15T14:01:09.246Z,0.75
2023-04-15T14:03:37.199Z,0.50
2023-04-15T14:06:08.207Z,0.90
2023-04-15T14:08:35.800Z,0.77
2023-04-15T14:11:03.260Z,0.77
2023-04-15T14:13:31.342Z,0.55
2023-04-15T14:15:58.952Z,1.00
2023-04-15T14:18:26.493Z,0.95
2023-04-15T14:20:54.144Z,0.73
2023-04-15T14:23:21.839Z,0.95
2023-04-15T14:25:51.189Z,0.80
2023-04-15T14:28:18.730Z,0.82
2023-04-15T14:30:46.567Z,0.70
2023-04-15T14:33:14.163Z,0.75
2023-04-15T14:35:41.714Z,1.50
2023-04-15T14:38:11.542Z,0.82
2023-04-15T14:40:39.209Z,1.08
2023-04-15T14:43:06.738Z,0.82
2023-04-15T14:45:34.785Z,0.68
2023-04-15T14:48:02.570Z,0.93
2023-04-15T14:50:30.151Z,0.90
2023-04-15T14:52:58.880Z,0.90
2023-04-15T14:55:26.290Z,0.75
2023-04-15T14:57:53.798Z,1.23
2023-04-15T15:00:21.217Z,0.63
2023-04-15T15:02:49.062Z,1.20
2023-04-15T15:05:16.700Z,0.77
2023-04-15T15:07:44.288Z,0.75
2023-04-15T15:10:11.766Z,0.82
2023-04-15T15:12:39.193Z,0.70
2023-04-15T15:15:19.439Z,0.82
2023-04-15T15:17:54.705Z,0.80
2023-04-15T15:20:23.121Z,0.70
2023-04-15T15:22:51.100Z,0.60
2023-04-15T15:25:18.753Z,0.50
2023-04-15T15:27:46.871Z,1.02
2023-04-15T15:30:14.440Z,0.80
2023-04-15T15:32:42.974Z,1.00
2023-04-15T15:35:10.978Z,0.85
2023-04-15T15:37:38.788Z,0.70
2023-04-15T15:40:07.242Z,0.65
2023-04-15T15:42:35.067Z,0.60
2023-04-15T15:45:04.176Z,0.50
2023-04-15T15:47:32.190Z,0.60
2023-04-15T15:50:01.058Z,0.60
2023-04-15T15:52:28.766Z,0.60
2023-04-15T15:54:56.205Z,0.57
2023-04-15T15:57:23.757Z,0.60
2023-04-15T16:00:04.678Z,0.50
2023-04-15T16:03:04.430Z,0.63
2023-04-15T16:05:25.351Z,0.63
2023-04-15T16:07:52.885Z,0.68
2023-04-15T16:10:20.476Z,0.80
2023-04-15T16:12:47.991Z,0.63
2023-04-15T16:15:15.597Z,0.90
2023-04-15T16:17:43.105Z,0.80
2023-04-15T16:20:10.972Z,0.73
2023-04-15T16:22:39.201Z,0.63
2023-04-15T16:25:07.254Z,0.70
2023-04-15T16:27:40.828Z,0.50
2023-04-15T16:30:17.750Z,0.57
2023-04-15T16:32:45.169Z,0.93
2023-04-15T16:35:14.570Z,0.40
2023-04-15T16:37:42.026Z,0.50
2023-04-15T16:40:10.110Z,0.60
2023-04-15T16:42:37.525Z,0.70
2023-04-15T16:45:05.565Z,1.10
2023-04-15T16:47:33.080Z,0.55
2023-04-15T16:50:00.596Z,0.73
2023-04-15T16:52:29.033Z,0.45
2023-04-15T16:54:56.443Z,0.50
2023-04-15T16:59:53.202Z,0.80
2023-04-15T17:02:20.869Z,0.57
2023-04-15T17:04:48.548Z,0.50
2023-04-15T17:07:16.224Z,0.82
2023-04-15T17:09:43.621Z,0.70
2023-04-15T17:12:11.026Z,0.63
2023-04-15T17:14:39.084Z,0.55
2023-04-15T17:17:06.680Z,0.65
2023-04-15T17:19:34.430Z,0.95
2023-04-15T17:22:02.414Z,0.70
2023-04-15T17:24:31.097Z,0.70
2023-04-15T17:26:58.558Z,1.08
2023-04-15T17:29:26.009Z,0.80
2023-04-15T17:31:54.906Z,0.60
2023-04-15T17:34:22.536Z,0.70
2023-04-15T17:36:51.454Z,0.90
2023-04-15T17:39:18.975Z,0.57
2023-04-15T17:41:46.774Z,1.75
2023-04-15T17:44:14.248Z,0.95
2023-04-15T17:46:41.843Z,0.90
2023-04-15T17:49:09.558Z,0.70
2023-04-15T17:51:37.048Z,0.73
2023-04-15T17:54:08.000Z,0.73
2023-04-15T17:56:35.548Z,0.50
2023-04-15T17:59:03.592Z,1.15
2023-04-15T18:01:31.256Z,0.88
2023-04-15T18:03:58.929Z,0.73
2023-04-15T18:06:27.350Z,0.68
2023-04-15T18:08:54.858Z,0.80
2023-04-15T18:11:22.364Z,0.90
2023-04-15T18:13:49.862Z,0.95
2023-04-15T18:16:17.627Z,0.95
2023-04-15T18:18:45.243Z,1.20
2023-04-15T18:21:13.885Z,0.88
2023-04-15T18:23:41.516Z,0.80
2023-04-15T18:26:09.109Z,0.90
2023-04-15T18:28:37.978Z,0.93
2023-04-15T18:31:06.607Z,0.90
2023-04-15T18:33:35.773Z,1.10
2023-04-15T18:36:03.288Z,1.13
2023-04-15T18:38:30.640Z,1.02
2023-04-15T18:40:58.809Z,1.30
2023-04-15T18:43:26.277Z,2.33
2023-04-15T18:45:55.032Z,2.10
2023-04-15T18:48:22.813Z,1.77
2023-04-15T18:50:54.035Z,2.42
2023-04-15T18:53:21.777Z,1.40
2023-04-15T18:55:49.221Z,2.20
2023-04-15T18:58:16.886Z,1.90
2023-04-15T19:00:44.588Z,2.53
2023-04-15T19:03:12.141Z,1.75
2023-04-15T19:05:40.164Z,1.25
2023-04-15T19:08:07.633Z,1.48
2023-04-15T19:10:35.518Z,1.95
2023-04-15T19:13:04.410Z,1.67
2023-04-15T19:15:32.081Z,1.73
2023-04-15T19:17:59.708Z,1.63
2023-04-15T19:20:27.364Z,1.65
2023-04-15T19:22:55.087Z,1.60
2023-04-15T19:25:22.529Z,1.40
2023-04-15T19:27:50.072Z,1.20
2023-04-15T19:30:17.593Z,1.60
2023-04-15T19:32:45.190Z,2.08
2023-04-15T19:35:12.792Z,1.73
2023-04-15T19:37:40.594Z,2.55
2023-04-15T19:40:09.469Z,2.28
2023-04-15T19:42:36.954Z,2.45
2023-04-15T19:47:33.598Z,2.00
2023-04-15T19:50:01.122Z,2.50
2023-04-15T19:52:28.646Z,2.60
2023-04-15T19:54:56.089Z,1.70
2023-04-15T19:57:23.749Z,2.65
2023-04-15T19:59:51.379Z,2.70
2023-04-15T20:02:19.052Z,2.30
2023-04-15T20:04:46.844Z,2.45
2023-04-15T20:07:14.366Z,3.03
2023-04-15T20:12:50.179Z,2.83
2023-04-15T20:14:58.683Z,2.90
2023-04-15T20:19:53.405Z,2.45
2023-04-15T20:24:48.193Z,2.17
2023-04-15T20:29:43.704Z,2.35
2023-04-15T20:32:11.687Z,3.10
2023-04-15T20:34:40.641Z,2.38
2023-04-15T20:37:08.067Z,2.72
2023-04-15T20:39:35.691Z,2.83
2023-04-15T20:42:03.537Z,2.15
2023-04-15T20:44:31.133Z,2.65
2023-04-15T20:46:58.579Z,2.45
2023-04-15T20:49:26.036Z,3.30
2023-04-15T20:54:20.929Z,2.60
2023-04-15T20:56:48.399Z,2.42
2023-04-15T20:59:16.079Z,2.50
2023-04-15T21:01:43.564Z,2.70
2023-04-15T21:04:11.363Z,2.53
2023-04-15T21:06:38.820Z,2.20
2023-04-15T21:09:06.668Z,2.10
2023-04-15T21:11:53.164Z,2.45
2023-04-15T21:14:21.877Z,1.80
2023-04-15T21:16:49.386Z,2.35
2023-04-15T21:19:16.954Z,2.58
2023-04-15T21:21:44.428Z,2.22
2023-04-15T21:24:11.911Z,2.70
2023-04-15T21:26:39.344Z,2.00
2023-04-15T21:29:09.506Z,2.05
2023-04-15T21:31:38.920Z,2.67
2023-04-15T21:34:08.052Z,2.25
2023-04-15T21:36:35.922Z,1.95
2023-04-15T21:39:04.883Z,2.38
2023-04-15T21:41:32.898Z,2.20
2023-04-15T21:44:00.479Z,2.35
2023-04-15T21:46:34.994Z,2.30
2023-04-15T21:49:03.689Z,2.40
2023-04-15T21:51:31.597Z,2.40
2023-04-15T21:53:59.779Z,2.22
2023-04-15T21:56:27.460Z,2.20
2023-04-15T21:58:57.222Z,2.10
2023-04-15T22:01:26.754Z,2.25
2023-04-15T22:03:54.445Z,2.28
2023-04-15T22:06:21.993Z,2.60
2023-04-15T22:08:56.895Z,2.78
2023-04-15T22:11:30.464Z,3.00
2023-04-15T22:13:58.994Z,2.50
2023-04-15T22:16:27.241Z,3.05
2023-04-15T22:18:55.623Z,2.85
2023-04-15T22:21:23.537Z,2.20
2023-04-15T22:23:51.733Z,2.60
2023-04-15T22:26:19.320Z,2.50
2023-04-15T22:28:46.793Z,2.42
2023-04-15T22:33:42.654Z,2.40
2023-04-15T22:36:10.177Z,2.28
2023-04-15T22:38:37.775Z,2.85
2023-04-15T22:41:05.301Z,2.88
2023-04-15T22:43:32.827Z,2.67
2023-04-15T22:46:01.043Z,2.90
2023-04-15T22:48:28.719Z,2.78
2023-04-15T22:50:56.265Z,3.55
2023-04-15T22:53:23.705Z,3.15
2023-04-15T22:58:19.084Z,3.40
2023-04-15T23:03:13.898Z,3.67
2023-04-15T23:05:42.402Z,3.83
2023-04-15T23:08:10.112Z,3.40
2023-04-15T23:10:40.083Z,3.42
2023-04-15T23:13:07.527Z,3.22
2023-04-15T23:18:02.592Z,3.35
2023-04-15T23:20:30.109Z,3.55
2023-04-15T23:22:57.604Z,3.35
2023-04-15T23:25:25.122Z,3.22
2023-04-15T23:27:52.657Z,3.35
2023-04-15T23:32:47.311Z,3.15
2023-04-15T23:37:42.360Z,3.40
2023-04-15T23:40:10.521Z,3.40
2023-04-15T23:42:38.083Z,3.30
2023-04-15T23:45:06.020Z,3.40
2023-04-15T23:47:33.578Z,3.88
2023-04-15T23:50:01.300Z,3.08
2023-04-15T23:52:28.774Z,3.70
2023-04-15T23:57:23.394Z,3.95
